Anaktuvuk Pass, AK

6:09 PM AKDT on July 30, 2014 (GMT -0800)
Anaktuvuk Pass (PAKP) Elev 2103 ft | 68.13 °N, 151.74 °W | Change Station

Current weather conditions updated 13 minutes ago

Clear
Clear
70 °F
Feels Like 70 °F
N
8
Wind Variable Wind from NNE

Tomorrow is forecast to be Cooler than today. Chance of showers tomorrow night.

Today
High -- | Low -- °F
--% Chance of Precip.
Yesterday
High -- | Low -- °F
Precip. -- in
4:10 AM 0:11 AM
Waxing Crescent, 15% visible
Pressure 30.12 in
Visibility 10.0 miles
Clouds Clear
Dew Point 32 °F
Humidity 25%
Rainfall 0.00 in
Snow Depth Not available.
UV 3 out of 12
Pollen Not available.
Air Quality Not available.
Flu Activity Not available.
METAR PAKP 310156Z AUTO 03007KT 10SM CLR 21/00 A3012 RMK AO1

More Conditions Fewer Conditions

Pressure 30.12 in
Visibility 10.0 miles
Clouds Clear
Dew Point 32 °F
Humidity 25%
Rainfall 0.00 in
Snow Depth Not available.
UV 3 out of 12
Pollen Not available.
Air Quality Not available.
Flu Activity Not available.
METAR PAKP 310156Z AUTO 03007KT 10SM CLR 21/00 A3012 RMK AO1

More Conditions Fewer Conditions

10-Day Weather Forecast

Almanac

Astronomy

Jul. 30, 2014 Rise Set
Actual Time 4:10 AM AKDT 12:11 AM AKDT
Civil Twilight Sun does not rise Sun does not rise
Nautical Twilight Sun does not rise Sun does not rise
Astronomical Twilight Sun does not rise Sun does not rise
Moon 10:33 AM AKDT (7/30) 11:08 PM AKDT (7/30)
Length of Visible Light 24h 00m
Length of Day
20h 01m
Tomorrow will be 10m 50s shorter.
Waxing Crescent, 15% of the Moon is Illuminated
Today
Waxing Crescent
Aug 3
First Quarter
Aug 10
Full
Aug 17
Last Quarter
Aug 25
New

Today's Extremes

State Highs State Lows

Community

WunderPhotos

Upload Photos

1,739,267 photos uploaded!

Nearby

Snow Depth

Station Depth Elevation
Coldfoot 0 in 1040 ft
Gobblers Knob 0 in 2030 ft
Fort Yukon 2 in 430 ft
Little Chena Ridge 1 in 2000 ft
Eagle Summit 1 in 3650 ft

Earthquake Activity

City Distance Mag. Time & Date
No recent earthquake activity has been reported nearby.
Minimum magnitude displayed is 2.5.

Coastal Water Temperatures

Place Temperature
No Stations Reporting

Nearby Weather Stations

There are no personal weather stations in this area.